Time;durP1;ratioP1;P1;durP2;ratioP2;P2;SDS_P1;SDS_P2;PMS_P1;PMS_P2;Temp;Humidity;BMP_temperature;BMP_pressure;BME280_temperature;BME280_humidity;BME280_pressure;Samples;Min_cycle;Max_cycle;Signal;HPM_P1;HPM_P2
2024/03/26 00:00:28;;;;;;;4.70;2.85;;;6.80;64.70;;;;;;5014104;28;20055;-90
2024/03/26 00:02:54;;;;;;;5.22;3.38;;;6.80;65.10;;;;;;5015210;28;20022;-89
2024/03/26 00:05:19;;;;;;;3.20;2.90;;;6.80;65.20;;;;;;5015400;28;20468;-90
2024/03/26 00:07:45;;;;;;;3.63;2.83;;;6.80;64.40;;;;;;5015017;28;20037;-87
2024/03/26 00:10:11;;;;;;;2.75;2.33;;;6.70;63.40;;;;;;5015508;28;20029;-88
2024/03/26 00:12:36;;;;;;;3.67;2.75;;;6.70;63.90;;;;;;4997582;28;20026;-89
2024/03/26 00:15:02;;;;;;;4.20;2.28;;;6.70;64.30;;;;;;5015977;28;20078;-90
2024/03/26 00:17:28;;;;;;;3.95;2.88;;;6.70;64.40;;;;;;5015380;28;20469;-90
2024/03/26 00:19:53;;;;;;;4.18;2.55;;;6.70;63.50;;;;;;5015044;28;20030;-89
2024/03/26 00:22:19;;;;;;;4.30;3.00;;;6.70;62.80;;;;;;5014106;28;20037;-88
2024/03/26 00:24:45;;;;;;;3.80;2.50;;;6.70;64.20;;;;;;5015216;28;20038;-89
2024/03/26 00:27:11;;;;;;;5.65;3.10;;;6.70;63.90;;;;;;4996244;28;20381;-89
2024/03/26 00:29:37;;;;;;;6.82;2.92;;;6.70;63.90;;;;;;5014765;28;20061;-88
2024/03/26 00:32:02;;;;;;;6.03;3.15;;;6.70;64.80;;;;;;5014725;28;20080;-89
2024/03/26 00:34:28;;;;;;;4.57;3.17;;;6.70;63.00;;;;;;5015058;28;20018;-88
2024/03/26 00:36:54;;;;;;;6.57;3.03;;;6.70;61.70;;;;;;5014516;28;20523;-89
2024/03/26 00:39:19;;;;;;;5.93;2.97;;;6.80;61.90;;;;;;5014497;28;20050;-89
2024/03/26 00:41:45;;;;;;;6.80;2.45;;;6.90;62.60;;;;;;5013840;28;20061;-89
2024/03/26 00:44:10;;;;;;;5.55;3.22;;;6.80;63.40;;;;;;5015114;28;20547;-90
2024/03/26 00:46:36;;;;;;;6.00;3.13;;;6.70;64.80;;;;;;5015638;28;20030;-89
2024/03/26 00:49:02;;;;;;;3.55;2.60;;;6.70;65.30;;;;;;5015164;28;20460;-90
2024/03/26 00:51:27;;;;;;;3.65;2.80;;;6.60;65.00;;;;;;5015206;28;20100;-90
2024/03/26 00:53:53;;;;;;;3.08;2.30;;;6.60;65.00;;;;;;5017193;28;20500;-88
2024/03/26 00:56:19;;;;;;;5.00;2.75;;;6.50;65.60;;;;;;5017713;28;20030;-88
2024/03/26 00:58:45;;;;;;;7.28;3.63;;;6.50;65.20;;;;;;5018010;28;20034;-89
2024/03/26 01:01:10;;;;;;;3.55;3.25;;;6.50;66.30;;;;;;5016729;28;20110;-88
2024/03/26 01:03:37;;;;;;;4.30;2.33;;;6.40;65.30;;;;;;5018176;28;20018;-89
2024/03/26 01:06:03;;;;;;;5.15;3.35;;;6.40;66.80;;;;;;5018198;28;20100;-90
2024/03/26 01:08:29;;;;;;;4.60;2.53;;;6.40;68.80;;;;;;5017762;28;20437;-89
2024/03/26 01:10:55;;;;;;;5.20;3.05;;;6.30;70.50;;;;;;5016222;28;20041;-89
2024/03/26 01:13:21;;;;;;;4.63;2.55;;;6.20;71.70;;;;;;5017791;28;20050;-90
2024/03/26 01:15:47;;;;;;;4.00;2.80;;;6.10;72.30;;;;;;5017797;28;20021;-90
2024/03/26 01:18:12;;;;;;;3.22;2.78;;;6.00;73.10;;;;;;5017382;28;20026;-89
2024/03/26 01:20:38;;;;;;;3.97;3.17;;;6.00;72.90;;;;;;5016896;28;20022;-90
2024/03/26 01:23:04;;;;;;;3.50;2.83;;;6.10;75.20;;;;;;5018160;28;20025;-90
2024/03/26 01:25:30;;;;;;;2.90;2.25;;;6.00;76.60;;;;;;5017376;28;20033;-88
2024/03/26 01:27:57;;;;;;;5.43;3.03;;;6.00;77.50;;;;;;5017948;28;20488;-89
2024/03/26 01:30:24;;;;;;;4.93;2.72;;;5.90;78.10;;;;;;5017986;28;20022;-90
2024/03/26 01:32:50;;;;;;;5.35;3.72;;;5.80;78.00;;;;;;5017646;28;20097;-90
2024/03/26 01:35:15;;;;;;;4.05;2.83;;;5.80;77.30;;;;;;5017935;28;20033;-89
2024/03/26 01:37:41;;;;;;;5.88;3.60;;;5.70;79.20;;;;;;5018562;28;20099;-89
2024/03/26 01:40:10;;;;;;;3.95;3.30;;;5.70;79.80;;;;;;5017445;28;20083;-88
2024/03/26 01:42:36;;;;;;;4.15;3.42;;;5.80;79.70;;;;;;5017700;28;20037;-89
2024/03/26 01:45:06;;;;;;;4.03;2.67;;;5.80;79.30;;;;;;5017986;28;20490;-89
2024/03/26 01:47:32;;;;;;;2.70;2.25;;;5.70;75.10;;;;;;5017309;28;20041;-88
2024/03/26 01:50:01;;;;;;;4.30;2.22;;;5.70;72.50;;;;;;5017228;28;20013;-88
2024/03/26 01:52:28;;;;;;;3.63;2.40;;;5.70;73.60;;;;;;5009057;28;20026;-90
2024/03/26 01:54:55;;;;;;;3.80;3.42;;;5.70;74.80;;;;;;5017091;28;20037;-88
2024/03/26 01:57:22;;;;;;;4.60;2.75;;;5.60;76.90;;;;;;5016575;28;20030;-90
2024/03/26 01:59:49;;;;;;;4.32;3.10;;;5.70;77.60;;;;;;5017379;28;20112;-89
2024/03/26 02:02:15;;;;;;;3.13;2.70;;;5.60;78.30;;;;;;5016479;28;20385;-89
2024/03/26 02:04:43;;;;;;;3.42;2.75;;;5.60;77.50;;;;;;5017143;28;20056;-89
2024/03/26 02:07:09;;;;;;;4.00;3.25;;;5.60;80.30;;;;;;5017028;28;20029;-89
2024/03/26 02:09:35;;;;;;;10.68;2.67;;;5.50;81.30;;;;;;5017538;28;20054;-89
2024/03/26 02:12:00;;;;;;;2.50;2.08;;;5.40;81.70;;;;;;5015714;28;20030;-90
2024/03/26 02:14:26;;;;;;;4.50;2.15;;;5.40;81.70;;;;;;5016972;28;20034;-89
2024/03/26 02:16:52;;;;;;;4.03;2.53;;;5.40;81.40;;;;;;5017385;28;20021;-88
2024/03/26 02:19:22;;;;;;;5.22;3.08;;;5.40;81.00;;;;;;5017156;28;20030;-89
2024/03/26 02:21:48;;;;;;;3.42;2.40;;;5.30;80.40;;;;;;5015126;28;20033;-89
2024/03/26 02:24:14;;;;;;;3.33;2.42;;;5.20;80.70;;;;;;5016449;28;20034;-90
2024/03/26 02:26:39;;;;;;;3.38;2.58;;;5.20;80.90;;;;;;5008963;28;20049;-89
2024/03/26 02:29:05;;;;;;;3.97;3.45;;;5.30;78.90;;;;;;5016800;28;20057;-89
2024/03/26 02:31:30;;;;;;;6.13;2.83;;;5.40;78.90;;;;;;5015555;28;20082;-90
2024/03/26 02:33:56;;;;;;;6.30;3.85;;;5.40;82.20;;;;;;5016055;28;20022;-89
2024/03/26 02:36:22;;;;;;;4.55;3.15;;;5.40;83.80;;;;;;5015760;28;20021;-89
2024/03/26 02:38:47;;;;;;;4.88;3.33;;;5.40;84.40;;;;;;5016229;28;20041;-90
2024/03/26 02:41:13;;;;;;;3.45;3.20;;;5.30;83.70;;;;;;5015449;28;20025;-89
2024/03/26 02:43:39;;;;;;;6.47;4.63;;;5.30;83.30;;;;;;5017422;28;20396;-89
2024/03/26 02:46:05;;;;;;;2.70;2.40;;;5.20;83.00;;;;;;5026299;28;20009;-88
2024/03/26 02:48:30;;;;;;;5.07;3.08;;;5.20;84.60;;;;;;5037053;28;20064;-88
2024/03/26 02:50:56;;;;;;;4.97;3.10;;;5.30;85.30;;;;;;5036181;28;20037;-90
2024/03/26 02:53:23;;;;;;;5.25;2.50;;;5.20;85.70;;;;;;5019118;28;20049;-89
2024/03/26 02:55:52;;;;;;;4.50;3.00;;;5.20;86.10;;;;;;5027560;28;20514;-90
2024/03/26 02:58:18;;;;;;;4.43;3.15;;;5.20;86.40;;;;;;5017249;28;20144;-89
2024/03/26 03:00:44;;;;;;;4.90;2.85;;;5.20;85.90;;;;;;5015448;28;20022;-89
2024/03/26 03:03:10;;;;;;;2.85;2.58;;;5.20;86.40;;;;;;5016251;28;20079;-89
2024/03/26 03:05:35;;;;;;;4.68;3.00;;;5.00;87.10;;;;;;5015566;28;20054;-89
2024/03/26 03:08:01;;;;;;;3.22;2.72;;;5.00;87.50;;;;;;5016233;28;20531;-89
2024/03/26 03:10:27;;;;;;;3.30;2.88;;;4.90;88.10;;;;;;5015649;28;20026;-89
2024/03/26 03:12:52;;;;;;;5.05;2.88;;;5.00;87.40;;;;;;5015329;28;20032;-89
2024/03/26 03:15:18;;;;;;;4.35;2.80;;;5.00;87.80;;;;;;5015196;28;20030;-89
2024/03/26 03:17:44;;;;;;;3.75;2.35;;;4.90;88.90;;;;;;5015713;28;20059;-89
2024/03/26 03:20:11;;;;;;;3.80;2.47;;;4.90;88.60;;;;;;5021493;28;20049;-89
2024/03/26 03:22:37;;;;;;;3.83;2.03;;;5.00;88.30;;;;;;5015634;28;20063;-89
2024/03/26 03:25:04;;;;;;;3.72;2.67;;;5.00;86.90;;;;;;5015409;28;20496;-89
2024/03/26 03:27:29;;;;;;;4.10;2.42;;;5.00;87.00;;;;;;5009155;28;20036;-87
2024/03/26 03:29:55;;;;;;;5.68;3.47;;;5.00;87.20;;;;;;5015650;28;20103;-90
2024/03/26 03:32:21;;;;;;;3.33;2.90;;;5.20;87.80;;;;;;5014984;28;20432;-90
2024/03/26 03:34:47;;;;;;;5.07;2.53;;;5.10;88.10;;;;;;5016619;28;20116;-88
2024/03/26 03:37:12;;;;;;;4.13;2.28;;;5.00;89.50;;;;;;5016979;28;20030;-89
2024/03/26 03:39:38;;;;;;;7.15;2.47;;;4.90;88.40;;;;;;5015756;28;20460;-88
2024/03/26 03:42:04;;;;;;;6.20;2.75;;;4.90;87.90;;;;;;5011233;28;20091;-89
2024/03/26 03:44:35;;;;;;;4.22;2.55;;;4.90;89.30;;;;;;4997600;28;20037;-88
2024/03/26 03:47:02;;;;;;;3.92;2.60;;;5.00;89.40;;;;;;5015986;28;20029;-90
2024/03/26 03:49:28;;;;;;;2.63;2.05;;;5.00;88.90;;;;;;5016399;28;20040;-89
2024/03/26 03:51:54;;;;;;;4.05;2.90;;;5.00;87.80;;;;;;5014904;28;20480;-89
2024/03/26 03:54:20;;;;;;;5.10;2.38;;;5.10;87.10;;;;;;5015804;28;20018;-89
2024/03/26 03:56:45;;;;;;;6.90;2.95;;;5.30;87.00;;;;;;5015409;28;20033;-89
2024/03/26 03:59:11;;;;;;;3.75;2.83;;;5.20;87.30;;;;;;5015577;28;20105;-89
2024/03/26 04:01:37;;;;;;;3.88;2.45;;;5.30;87.60;;;;;;5014893;28;20029;-88
2024/03/26 04:04:03;;;;;;;2.90;2.30;;;5.30;88.50;;;;;;4998185;28;20026;-88
2024/03/26 04:06:28;;;;;;;3.70;2.83;;;5.20;90.40;;;;;;5015878;28;20026;-89
2024/03/26 04:08:54;;;;;;;2.70;2.17;;;5.20;90.30;;;;;;4997300;28;20493;-89
2024/03/26 04:11:19;;;;;;;4.53;2.35;;;5.30;90.50;;;;;;4996941;28;20030;-88
2024/03/26 04:13:45;;;;;;;3.85;3.20;;;5.30;88.00;;;;;;5015604;28;20030;-89
2024/03/26 04:16:11;;;;;;;3.75;2.58;;;5.30;86.90;;;;;;5015220;28;20083;-88
2024/03/26 04:18:36;;;;;;;4.55;2.67;;;5.40;86.10;;;;;;5015213;28;20041;-89
2024/03/26 04:21:02;;;;;;;5.30;3.20;;;5.40;87.90;;;;;;5015091;28;20105;-90
2024/03/26 04:23:28;;;;;;;3.53;3.10;;;5.40;88.80;;;;;;5015718;28;20018;-87
2024/03/26 04:25:59;;;;;;;4.57;2.67;;;5.50;89.70;;;;;;5016496;28;20389;-87
2024/03/26 04:28:27;;;;;;;5.55;2.90;;;5.50;88.70;;;;;;5018657;28;20037;-87
2024/03/26 04:30:54;;;;;;;6.85;3.38;;;5.50;88.50;;;;;;5017492;28;20068;-88
2024/03/26 04:33:20;;;;;;;4.00;3.25;;;5.40;87.60;;;;;;5010818;28;20533;-87
2024/03/26 04:35:46;;;;;;;3.40;2.42;;;5.40;90.10;;;;;;5009848;28;20365;-89
2024/03/26 04:38:12;;;;;;;3.58;2.53;;;5.40;90.10;;;;;;5017661;28;20564;-87
2024/03/26 04:40:41;;;;;;;4.25;1.77;;;5.30;89.60;;;;;;5014808;28;20056;-87
2024/03/26 04:43:07;;;;;;;6.57;3.28;;;5.40;89.40;;;;;;5018633;28;20022;-87
2024/03/26 04:45:34;;;;;;;6.82;3.78;;;5.30;89.40;;;;;;5018810;28;20485;-90
2024/03/26 04:48:00;;;;;;;4.60;3.33;;;5.40;89.80;;;;;;5019096;28;20030;-87
2024/03/26 04:50:26;;;;;;;3.53;2.40;;;5.50;89.60;;;;;;5018964;28;20133;-88
2024/03/26 04:52:52;;;;;;;6.13;2.95;;;5.40;89.50;;;;;;5019013;28;20180;-88
2024/03/26 04:55:18;;;;;;;3.55;2.42;;;5.60;89.50;;;;;;5014591;28;20608;-88
2024/03/26 04:57:44;;;;;;;3.42;3.13;;;5.50;88.80;;;;;;5006636;28;20034;-89
2024/03/26 05:00:12;;;;;;;3.55;2.92;;;5.50;88.20;;;;;;5009111;28;20030;-87
2024/03/26 05:02:38;;;;;;;4.63;2.95;;;5.60;90.10;;;;;;5012390;28;20393;-86
2024/03/26 05:05:04;;;;;;;3.83;3.05;;;5.40;90.60;;;;;;5008798;28;20027;-88
2024/03/26 05:07:35;;;;;;;6.53;2.88;;;5.50;90.90;;;;;;5007216;28;20019;-88
2024/03/26 05:10:00;;;;;;;4.60;3.40;;;5.40;90.90;;;;;;5006784;28;20029;-87
2024/03/26 05:12:27;;;;;;;4.95;3.53;;;5.40;92.10;;;;;;5008669;28;20636;-87
2024/03/26 05:14:53;;;;;;;7.22;4.05;;;5.40;92.90;;;;;;5007716;28;20109;-88
2024/03/26 05:17:18;;;;;;;6.97;3.63;;;5.40;92.20;;;;;;5007378;28;20058;-90
2024/03/26 05:19:44;;;;;;;6.05;3.75;;;5.40;93.20;;;;;;5000959;28;20432;-87
2024/03/26 05:22:10;;;;;;;4.55;3.58;;;5.40;93.10;;;;;;5004408;28;20031;-89
2024/03/26 05:24:38;;;;;;;7.97;3.42;;;5.50;91.90;;;;;;4992810;28;20037;-88
2024/03/26 05:27:04;;;;;;;4.75;3.33;;;5.50;89.10;;;;;;5004507;28;20030;-89
2024/03/26 05:29:29;;;;;;;8.40;5.00;;;5.50;89.40;;;;;;5015727;28;20057;-87
2024/03/26 05:31:55;;;;;;;23.85;7.72;;;5.60;88.20;;;;;;5014556;28;20025;-87
2024/03/26 05:34:22;;;;;;;6.50;5.88;;;5.60;87.40;;;;;;5013494;28;20065;-89
2024/03/26 05:36:48;;;;;;;5.40;3.67;;;5.70;87.30;;;;;;5013663;28;20021;-88
2024/03/26 05:39:13;;;;;;;7.68;4.68;;;5.70;87.50;;;;;;5013920;28;20099;-87
2024/03/26 05:41:40;;;;;;;5.10;4.60;;;5.70;88.10;;;;;;5014707;28;20029;-89
2024/03/26 05:44:06;;;;;;;6.72;4.10;;;5.70;87.50;;;;;;5014859;28;20515;-87
2024/03/26 05:46:32;;;;;;;5.28;3.85;;;5.80;86.90;;;;;;5015756;28;20062;-88
2024/03/26 05:48:58;;;;;;;6.22;3.38;;;5.80;86.30;;;;;;5017171;28;20018;-88
2024/03/26 05:51:24;;;;;;;5.45;2.97;;;5.90;86.10;;;;;;5016992;28;20496;-89
2024/03/26 05:53:49;;;;;;;4.78;2.90;;;5.90;84.60;;;;;;5018374;28;20094;-91
2024/03/26 05:56:15;;;;;;;4.97;3.65;;;5.90;84.70;;;;;;5016842;28;20077;-88
2024/03/26 05:58:40;;;;;;;5.57;4.13;;;5.90;84.50;;;;;;5017216;28;20026;-89
2024/03/26 06:01:06;;;;;;;6.65;4.25;;;6.00;84.90;;;;;;5013185;28;20405;-90
2024/03/26 06:03:32;;;;;;;33.50;27.67;;;6.00;84.00;;;;;;5017801;28;20037;-90
2024/03/26 06:05:58;;;;;;;6.60;4.57;;;6.00;85.20;;;;;;5016710;28;20045;-90
2024/03/26 06:08:25;;;;;;;4.80;3.47;;;6.10;85.40;;;;;;5017466;28;20697;-90
2024/03/26 06:10:50;;;;;;;4.03;3.63;;;6.10;85.60;;;;;;5016839;28;20018;-89
2024/03/26 06:13:16;;;;;;;6.55;4.03;;;6.10;84.70;;;;;;5014774;28;20025;-90
2024/03/26 06:15:41;;;;;;;3.67;2.35;;;6.10;85.50;;;;;;5017955;28;20744;-90
2024/03/26 06:18:07;;;;;;;5.55;3.40;;;6.20;83.40;;;;;;5017064;28;20029;-90
2024/03/26 06:20:33;;;;;;;8.88;5.78;;;6.10;87.00;;;;;;5015258;28;20029;-88
2024/03/26 06:22:59;;;;;;;6.03;5.20;;;6.20;86.40;;;;;;5017200;28;20037;-87
2024/03/26 06:25:25;;;;;;;5.35;3.72;;;6.10;87.00;;;;;;4994173;28;20444;-90
2024/03/26 06:27:52;;;;;;;6.38;4.40;;;6.20;88.10;;;;;;5017230;28;20026;-88
2024/03/26 06:30:18;;;;;;;4.68;3.78;;;6.20;88.60;;;;;;5008759;28;20026;-88
2024/03/26 06:32:44;;;;;;;8.75;4.45;;;6.20;84.00;;;;;;5011577;28;20396;-89
2024/03/26 06:35:10;;;;;;;7.57;3.50;;;6.20;83.80;;;;;;5017306;28;20068;-90
2024/03/26 06:37:36;;;;;;;8.90;3.03;;;6.30;84.30;;;;;;5014114;28;20026;-88
2024/03/26 06:40:03;;;;;;;8.55;3.60;;;6.50;84.70;;;;;;5008060;28;20037;-89
2024/03/26 06:42:29;;;;;;;7.43;3.63;;;6.50;81.80;;;;;;4999598;28;20050;-90
2024/03/26 06:44:55;;;;;;;11.07;5.15;;;6.50;82.60;;;;;;4999789;28;20023;-90
2024/03/26 06:47:20;;;;;;;5.47;3.10;;;6.50;81.60;;;;;;5009656;28;20477;-89
2024/03/26 06:49:47;;;;;;;7.18;3.38;;;6.50;81.50;;;;;;5013884;28;20026;-89
2024/03/26 06:52:12;;;;;;;9.65;4.80;;;6.50;81.50;;;;;;5016039;28;20053;-89
2024/03/26 06:54:39;;;;;;;4.72;3.30;;;6.60;80.90;;;;;;5019801;28;20034;-89
2024/03/26 06:57:04;;;;;;;6.35;3.28;;;6.60;79.70;;;;;;5017836;28;20026;-90
2024/03/26 06:59:30;;;;;;;6.55;4.05;;;6.70;79.50;;;;;;5016396;28;20033;-90
2024/03/26 07:01:57;;;;;;;7.63;5.22;;;6.70;78.80;;;;;;4997716;28;20687;-89
2024/03/26 07:04:23;;;;;;;5.85;3.25;;;6.80;78.80;;;;;;5005525;28;20053;-90
2024/03/26 07:06:49;;;;;;;7.28;3.45;;;6.80;78.00;;;;;;5016448;28;20431;-90
2024/03/26 07:09:14;;;;;;;7.38;4.18;;;6.90;77.90;;;;;;5015468;28;20141;-90
2024/03/26 07:11:41;;;;;;;5.80;4.28;;;6.90;76.70;;;;;;5014455;28;20018;-90
2024/03/26 07:14:07;;;;;;;5.53;4.05;;;7.00;76.60;;;;;;5015360;28;20068;-91
2024/03/26 07:16:32;;;;;;;6.68;4.40;;;7.10;75.60;;;;;;5012366;28;20033;-90
2024/03/26 07:18:58;;;;;;;6.55;4.10;;;7.20;76.90;;;;;;5015788;28;20235;-88
2024/03/26 07:21:24;;;;;;;5.70;3.65;;;7.20;75.10;;;;;;5007479;28;20090;-90
2024/03/26 07:23:49;;;;;;;4.53;2.90;;;7.20;73.60;;;;;;4997036;28;20092;-87
2024/03/26 07:26:15;;;;;;;10.43;4.50;;;7.30;74.10;;;;;;4989477;28;20057;-88
2024/03/26 07:28:41;;;;;;;10.85;4.03;;;7.20;73.60;;;;;;5015305;28;20508;-89
2024/03/26 07:31:09;;;;;;;4.78;3.40;;;7.30;74.70;;;;;;5015924;28;20477;-88
2024/03/26 07:33:35;;;;;;;4.30;3.60;;;7.30;74.30;;;;;;5015538;28;20392;-89
2024/03/26 07:36:01;;;;;;;7.90;3.08;;;7.40;73.00;;;;;;5016464;28;20032;-88
2024/03/26 07:38:27;;;;;;;7.55;5.35;;;7.40;73.40;;;;;;4996626;28;20030;-89
2024/03/26 07:40:54;;;;;;;7.78;4.85;;;7.40;73.40;;;;;;5014024;28;20109;-88
2024/03/26 07:43:19;;;;;;;9.32;3.17;;;7.60;72.60;;;;;;5014321;28;20496;-89
2024/03/26 07:45:45;;;;;;;10.57;3.90;;;7.60;72.90;;;;;;5014216;28;20049;-88
2024/03/26 07:48:11;;;;;;;4.18;3.10;;;7.80;71.20;;;;;;4996026;28;20034;-88
2024/03/26 07:50:37;;;;;;;5.82;4.13;;;7.90;70.50;;;;;;5012974;28;20029;-88
2024/03/26 07:53:02;;;;;;;5.68;3.13;;;7.80;68.40;;;;;;5014697;28;20032;-88
2024/03/26 07:55:28;;;;;;;7.55;3.20;;;7.90;69.10;;;;;;5013956;28;20033;-89
2024/03/26 07:57:53;;;;;;;5.13;3.22;;;8.00;68.70;;;;;;5014617;28;20025;-89
2024/03/26 08:00:19;;;;;;;6.18;3.85;;;7.90;68.40;;;;;;5014318;28;20084;-90
2024/03/26 08:02:45;;;;;;;6.65;4.18;;;7.80;68.20;;;;;;5015054;28;20460;-89
2024/03/26 08:05:10;;;;;;;7.85;3.97;;;7.70;68.40;;;;;;5016782;28;20030;-88
2024/03/26 08:07:36;;;;;;;10.40;5.57;;;7.80;68.60;;;;;;5015927;28;20034;-90
2024/03/26 08:10:02;;;;;;;4.07;3.65;;;7.70;68.60;;;;;;5016487;28;20053;-90
2024/03/26 08:12:27;;;;;;;7.20;3.67;;;7.70;69.40;;;;;;5016300;28;20030;-89
2024/03/26 08:14:53;;;;;;;6.68;3.95;;;7.70;69.50;;;;;;4998659;28;20018;-88
2024/03/26 08:17:19;;;;;;;8.60;4.30;;;7.70;70.10;;;;;;5016370;28;20030;-89
2024/03/26 08:19:44;;;;;;;6.15;3.47;;;7.90;69.80;;;;;;5016252;28;20041;-91
2024/03/26 08:22:11;;;;;;;7.28;4.60;;;7.90;69.50;;;;;;5014097;28;20038;-88
2024/03/26 08:24:36;;;;;;;8.73;3.75;;;8.00;68.10;;;;;;5016603;28;20032;-89
2024/03/26 08:27:02;;;;;;;7.68;3.72;;;8.00;68.10;;;;;;5012627;28;20109;-88
2024/03/26 08:29:28;;;;;;;12.43;4.20;;;8.10;67.80;;;;;;5015886;28;20084;-88
2024/03/26 08:31:53;;;;;;;9.40;3.38;;;8.10;66.90;;;;;;5015809;28;20091;-89
2024/03/26 08:34:19;;;;;;;9.70;4.63;;;8.00;67.10;;;;;;5019562;28;20078;-88
2024/03/26 08:36:45;;;;;;;8.05;4.50;;;8.20;66.80;;;;;;5034293;28;20026;-87
2024/03/26 08:39:13;;;;;;;5.70;4.28;;;8.20;66.20;;;;;;5033541;28;20491;-89
2024/03/26 08:41:39;;;;;;;7.95;4.28;;;8.40;65.90;;;;;;5033948;28;20089;-88
2024/03/26 08:44:05;;;;;;;5.88;3.70;;;8.50;65.30;;;;;;5034254;28;20023;-88
2024/03/26 08:46:32;;;;;;;7.43;4.55;;;8.50;65.60;;;;;;5019020;28;20117;-90
2024/03/26 08:48:58;;;;;;;7.25;3.85;;;8.60;65.50;;;;;;5016627;28;20022;-89
2024/03/26 08:51:27;;;;;;;5.35;3.92;;;8.70;65.00;;;;;;5015993;28;20026;-87
2024/03/26 08:53:54;;;;;;;7.93;3.83;;;8.80;64.20;;;;;;5016161;28;20049;-90
2024/03/26 08:56:20;;;;;;;6.03;3.47;;;8.80;63.80;;;;;;5015851;28;20077;-88
2024/03/26 08:58:46;;;;;;;4.70;3.53;;;8.80;64.80;;;;;;5016756;28;20713;-88
2024/03/26 09:01:11;;;;;;;7.95;4.20;;;8.80;64.70;;;;;;5015096;28;20030;-89
2024/03/26 09:03:37;;;;;;;7.30;4.95;;;8.90;65.10;;;;;;5016479;28;20081;-87
2024/03/26 09:06:03;;;;;;;10.93;4.07;;;9.10;63.60;;;;;;4999015;28;20033;-90
2024/03/26 09:08:28;;;;;;;8.60;3.80;;;9.00;62.50;;;;;;5016183;28;20057;-91
2024/03/26 09:10:54;;;;;;;6.63;4.45;;;9.20;63.40;;;;;;5015719;28;20503;-88
2024/03/26 09:13:20;;;;;;;8.07;5.28;;;9.50;65.20;;;;;;5001169;28;20049;-89
2024/03/26 09:15:45;;;;;;;7.70;4.15;;;9.60;62.70;;;;;;5019791;28;20026;-90
2024/03/26 09:18:11;;;;;;;6.60;4.45;;;9.70;61.60;;;;;;5018275;28;20025;-89
2024/03/26 09:20:37;;;;;;;10.05;4.22;;;9.90;61.10;;;;;;5018229;28;20108;-89
2024/03/26 09:23:03;;;;;;;6.28;4.60;;;10.10;59.40;;;;;;5019548;28;20045;-90
2024/03/26 09:25:28;;;;;;;11.57;3.13;;;10.10;59.20;;;;;;5017840;28;20033;-89
2024/03/26 09:27:54;;;;;;;8.00;3.88;;;10.20;59.20;;;;;;5018015;28;20107;-89
2024/03/26 09:30:19;;;;;;;4.38;2.92;;;10.60;59.80;;;;;;5017282;28;20485;-89
2024/03/26 09:32:45;;;;;;;6.10;3.70;;;10.80;57.20;;;;;;5019159;28;20543;-89
2024/03/26 09:35:11;;;;;;;5.80;3.58;;;10.90;56.10;;;;;;5019066;28;20026;-90
2024/03/26 09:37:37;;;;;;;6.20;3.88;;;10.80;56.50;;;;;;5019774;28;20028;-90
2024/03/26 09:40:03;;;;;;;5.05;3.47;;;10.70;55.20;;;;;;5019140;28;20030;-90
2024/03/26 09:42:29;;;;;;;7.00;4.03;;;10.60;55.90;;;;;;5018502;28;20037;-89
2024/03/26 09:44:57;;;;;;;5.85;4.88;;;10.60;56.40;;;;;;5019389;28;20026;-89
2024/03/26 09:47:25;;;;;;;5.07;3.42;;;10.70;55.90;;;;;;5002147;28;20022;-90
2024/03/26 09:49:51;;;;;;;6.32;4.10;;;11.00;54.80;;;;;;5019351;28;20116;-89
2024/03/26 09:52:17;;;;;;;5.63;3.28;;;11.00;54.30;;;;;;5017665;28;20057;-90
2024/03/26 09:54:46;;;;;;;6.45;4.15;;;11.20;52.90;;;;;;5018286;28;20028;-88
2024/03/26 09:57:11;;;;;;;5.22;3.80;;;11.30;53.20;;;;;;5018306;28;20100;-90
2024/03/26 09:59:37;;;;;;;5.43;3.08;;;11.20;52.60;;;;;;5018893;28;20052;-89
2024/03/26 10:02:07;;;;;;;4.75;3.63;;;11.40;51.50;;;;;;5017963;28;20451;-88
2024/03/26 10:04:33;;;;;;;6.53;3.33;;;11.50;50.70;;;;;;5000903;28;20038;-89
2024/03/26 10:06:59;;;;;;;8.57;3.40;;;11.90;51.80;;;;;;5018513;28;20036;-89
2024/03/26 10:09:26;;;;;;;5.65;4.13;;;12.40;49.00;;;;;;5018182;28;20025;-90
2024/03/26 10:11:52;;;;;;;4.60;3.35;;;12.80;46.90;;;;;;5018147;28;20018;-90
2024/03/26 10:14:17;;;;;;;5.38;4.20;;;13.00;45.70;;;;;;5017402;28;20395;-91
2024/03/26 10:16:43;;;;;;;7.10;3.55;;;12.90;45.50;;;;;;5014338;28;20525;-90
2024/03/26 10:19:09;;;;;;;4.53;2.92;;;12.90;45.60;;;;;;5000615;28;20026;-90
2024/03/26 10:21:35;;;;;;;3.90;3.10;;;12.80;47.60;;;;;;5018388;28;20110;-89
2024/03/26 10:24:01;;;;;;;7.38;2.97;;;12.60;45.40;;;;;;5018534;28;20034;-90
2024/03/26 10:26:27;;;;;;;7.50;3.17;;;12.70;45.80;;;;;;5017876;28;20072;-90
2024/03/26 10:28:53;;;;;;;4.13;3.55;;;12.50;47.10;;;;;;5018164;28;20022;-89
2024/03/26 10:31:19;;;;;;;6.35;3.25;;;12.50;47.10;;;;;;5017920;28;20026;-90
2024/03/26 10:33:47;;;;;;;7.43;2.88;;;12.70;47.40;;;;;;5018031;28;20029;-89
2024/03/26 10:36:16;;;;;;;5.43;3.20;;;12.70;46.90;;;;;;5018944;28;20026;-91
2024/03/26 10:38:42;;;;;;;6.35;3.50;;;13.00;46.20;;;;;;5017467;28;20026;-89
2024/03/26 10:41:17;;;;;;;8.45;3.60;;;13.20;45.00;;;;;;5016995;28;20081;-90
2024/03/26 10:43:43;;;;;;;5.82;3.53;;;13.00;46.20;;;;;;4999803;28;20030;-90
2024/03/26 10:46:09;;;;;;;6.93;3.42;;;12.90;46.80;;;;;;4999610;28;20030;-91
2024/03/26 10:48:37;;;;;;;7.75;2.72;;;13.00;47.00;;;;;;5017497;28;20116;-90
2024/03/26 10:51:03;;;;;;;5.20;2.90;;;13.20;46.30;;;;;;5018043;28;20033;-93
2024/03/26 10:53:32;;;;;;;4.38;3.40;;;13.30;45.70;;;;;;5019524;28;20030;-92
2024/03/26 10:56:01;;;;;;;9.90;3.38;;;13.30;45.20;;;;;;5001664;28;20026;-92
2024/03/26 10:58:26;;;;;;;5.25;3.22;;;13.20;45.20;;;;;;5018285;28;20550;-94
2024/03/26 11:00:53;;;;;;;5.90;3.17;;;13.50;45.40;;;;;;5017563;28;20037;-92
2024/03/26 11:03:34;;;;;;;6.18;3.08;;;13.50;45.20;;;;;;5011487;28;20025;-94
2024/03/26 11:06:01;;;;;;;7.28;3.33;;;13.60;45.20;;;;;;4999668;28;20120;-89
2024/03/26 11:08:27;;;;;;;5.65;3.25;;;13.90;44.50;;;;;;5012588;28;20050;-91
2024/03/26 11:11:19;;;;;;;5.85;3.28;;;14.30;43.10;;;;;;4986118;28;20033;-93
2024/03/26 11:13:45;;;;;;;8.05;4.25;;;14.70;42.50;;;;;;5015502;28;20018;-95
2024/03/26 11:16:42;;;;;;;5.15;3.88;;;14.80;43.00;;;;;;5020030;28;20026;-92
2024/03/26 11:19:28;;;;;;;4.85;3.50;;;14.80;42.50;;;;;;5019567;28;20041;-94
2024/03/26 11:21:57;;;;;;;6.95;2.90;;;15.00;43.30;;;;;;5003095;28;20441;-94
2024/03/26 11:24:25;;;;;;;5.80;3.63;;;15.10;42.20;;;;;;4999165;28;20102;-92
2024/03/26 11:26:51;;;;;;;6.65;3.97;;;15.20;42.40;;;;;;5012985;28;20059;-92
2024/03/26 11:29:40;;;;;;;;;;;;;;;;;;;;;
2024/03/26 11:32:07;;;;;;;9.60;3.55;;;15.70;41.50;;;;;;5011272;28;20463;-92
2024/03/26 11:34:33;;;;;;;7.45;3.45;;;15.80;40.70;;;;;;5006401;28;20022;-92
2024/03/26 11:36:59;;;;;;;5.05;3.10;;;15.60;41.30;;;;;;5013442;28;20022;-91
2024/03/26 11:39:29;;;;;;;7.25;3.83;;;15.70;39.80;;;;;;5017081;28;20030;-93
2024/03/26 11:41:54;;;;;;;5.18;3.67;;;15.80;40.60;;;;;;5004494;28;20026;-93
2024/03/26 11:44:20;;;;;;;4.47;3.17;;;15.80;40.10;;;;;;5019208;28;20033;-92
2024/03/26 11:46:47;;;;;;;6.57;3.20;;;15.70;40.00;;;;;;5016542;28;20053;-92
2024/03/26 11:49:13;;;;;;;17.65;4.38;;;15.60;39.90;;;;;;5019136;28;20033;-93
2024/03/26 11:51:41;;;;;;;6.70;3.78;;;15.80;39.10;;;;;;5017284;28;20025;-93
2024/03/26 11:54:08;;;;;;;6.00;2.85;;;15.90;39.40;;;;;;5017705;28;20029;-93
2024/03/26 11:56:34;;;;;;;4.78;3.13;;;15.60;40.40;;;;;;5000452;28;20021;-92
2024/03/26 11:59:02;;;;;;;6.03;3.28;;;15.80;40.10;;;;;;5018100;28;20052;-92
2024/03/26 12:01:27;;;;;;;;;;;16.00;38.90;;;;;;4999945;28;20068;-91
2024/03/26 12:03:55;;;;;;;5.45;2.25;;;16.30;38.70;;;;;;4997795;28;19910;-91
2024/03/26 12:06:26;;;;;;;6.18;2.83;;;16.20;38.50;;;;;;4998177;28;20034;-93
2024/03/26 12:08:54;;;;;;;4.80;2.90;;;16.70;38.10;;;;;;5016205;28;20040;-93
2024/03/26 12:11:25;;;;;;;7.07;3.08;;;16.70;37.80;;;;;;4998162;28;20109;-94
2024/03/26 12:13:52;;;;;;;4.60;3.28;;;16.80;37.80;;;;;;4999366;28;20106;-92
2024/03/26 12:16:28;;;;;;;3.30;2.38;;;17.00;37.20;;;;;;5016797;28;20045;-92
2024/03/26 12:18:55;;;;;;;4.45;2.75;;;16.50;37.10;;;;;;5016212;28;20056;-93
2024/03/26 12:24:59;;;;;;;5.53;2.55;;;17.30;37.20;;;;;;5059878;23;20176;-95
2024/03/26 12:27:24;;;;;;;6.20;2.83;;;17.00;36.30;;;;;;5025150;28;20044;-93
2024/03/26 12:29:50;;;;;;;6.05;2.92;;;17.50;36.00;;;;;;5015976;28;20026;-93
2024/03/26 12:32:15;;;;;;;4.68;2.97;;;17.70;36.00;;;;;;5015711;28;20583;-93
2024/03/26 12:34:41;;;;;;;5.88;3.40;;;18.20;34.60;;;;;;5014472;28;20029;-95
2024/03/26 12:37:09;;;;;;;4.88;2.92;;;18.40;34.90;;;;;;5007105;28;20078;-94
2024/03/26 12:39:35;;;;;;;5.65;3.35;;;18.60;34.00;;;;;;5011704;28;20112;-92
2024/03/26 12:42:01;;;;;;;4.75;3.63;;;18.20;34.40;;;;;;4997701;28;20432;-93
2024/03/26 12:44:27;;;;;;;5.97;3.25;;;18.50;34.10;;;;;;5001593;28;20030;-92
2024/03/26 12:46:54;;;;;;;5.53;3.22;;;18.40;34.10;;;;;;5015195;28;20022;-93
2024/03/26 12:49:19;;;;;;;4.50;2.95;;;17.70;34.60;;;;;;5011896;28;20018;-92
2024/03/26 12:51:46;;;;;;;4.75;2.88;;;17.30;36.10;;;;;;5020025;28;20052;-92
2024/03/26 12:54:13;;;;;;;4.88;2.47;;;17.30;35.80;;;;;;5020508;28;20071;-94